Kake Airport Kake US
ICAO: PAFE
IATA:
Category: Medium
Scheduled Services:

Elevation: 172 ft
TransAlt. 18000 ft.

Airport Communications:
AWOS 3:135.25
ANCHORAGE CNTR:118
CTAF:122.9
SITKA RDO:121.3

PAFE Zoom In..

Runways:

(A) RW 11 length 4000 ft width 100 ft
---- / hdg 109

(B) RW 29 length 4000 ft width 100 ft
---- / hdg 289

Location; PAFE
Day. 21 / Time. 14.56 Zulu
* Altimeter: 29.77
* Temperature: 09° c. 48.2°f.
* Wind from: 130° Speed 08 kn.
Dewpoint: 08° c.
Visibility: 8 Statute Miles.
Clouds: Overcast 900 ft.
Conditions: Light Rain.

PAFE 211456Z AUTO 13008KT 8SM -RA OVC009 09/08 A2977 RMK AO2 CIG 006V012 SLP094 P0008 60018 T00890083 56008 $


Wind From 130°
Speed 08 kn.

 
 
jpsmedia.com for Web Design SOUNDCLOUD worldairports.se 2018   terms of use